sensor_id;sensor_type;location;lat;lon;timestamp;P1;durP1;ratioP1;P2;durP2;ratioP2
20138;SDS011;10230;51.502;10.800;2023-03-05T00:01:31;0.73;;;0.20;;
20138;SDS011;10230;51.502;10.800;2023-03-05T00:03:58;0.90;;;0.60;;
20138;SDS011;10230;51.502;10.800;2023-03-05T00:06:25;3.13;;;0.50;;
20138;SDS011;10230;51.502;10.800;2023-03-05T00:08:51;0.87;;;0.20;;
20138;SDS011;10230;51.502;10.800;2023-03-05T00:11:19;1.70;;;0.30;;
20138;SDS011;10230;51.502;10.800;2023-03-05T00:13:45;1.17;;;0.60;;
20138;SDS011;10230;51.502;10.800;2023-03-05T00:16:12;3.43;;;0.47;;
20138;SDS011;10230;51.502;10.800;2023-03-05T00:18:38;0.87;;;0.43;;
20138;SDS011;10230;51.502;10.800;2023-03-05T00:21:15;0.97;;;0.50;;
20138;SDS011;10230;51.502;10.800;2023-03-05T00:23:42;1.50;;;0.50;;
20138;SDS011;10230;51.502;10.800;2023-03-05T00:26:08;2.47;;;0.60;;
20138;SDS011;10230;51.502;10.800;2023-03-05T00:28:34;3.40;;;1.00;;
20138;SDS011;10230;51.502;10.800;2023-03-05T00:31:00;1.00;;;0.50;;
20138;SDS011;10230;51.502;10.800;2023-03-05T00:33:26;5.70;;;0.50;;
20138;SDS011;10230;51.502;10.800;2023-03-05T00:35:52;1.80;;;0.50;;
20138;SDS011;10230;51.502;10.800;2023-03-05T00:38:18;3.90;;;0.60;;
20138;SDS011;10230;51.502;10.800;2023-03-05T00:40:44;1.63;;;0.23;;
20138;SDS011;10230;51.502;10.800;2023-03-05T00:43:10;4.93;;;0.90;;
20138;SDS011;10230;51.502;10.800;2023-03-05T00:45:36;5.20;;;0.83;;
20138;SDS011;10230;51.502;10.800;2023-03-05T00:48:02;1.37;;;0.60;;
20138;SDS011;10230;51.502;10.800;2023-03-05T00:50:28;4.13;;;0.70;;
20138;SDS011;10230;51.502;10.800;2023-03-05T00:52:54;1.40;;;0.50;;
20138;SDS011;10230;51.502;10.800;2023-03-05T00:55:20;0.63;;;0.33;;
20138;SDS011;10230;51.502;10.800;2023-03-05T00:57:46;3.67;;;0.60;;
20138;SDS011;10230;51.502;10.800;2023-03-05T01:00:13;2.40;;;0.60;;
20138;SDS011;10230;51.502;10.800;2023-03-05T01:02:39;2.00;;;0.70;;
20138;SDS011;10230;51.502;10.800;2023-03-05T01:05:06;1.40;;;0.40;;
20138;SDS011;10230;51.502;10.800;2023-03-05T01:07:32;2.27;;;0.57;;
20138;SDS011;10230;51.502;10.800;2023-03-05T01:09:58;2.50;;;0.30;;
20138;SDS011;10230;51.502;10.800;2023-03-05T01:12:25;1.63;;;0.33;;
20138;SDS011;10230;51.502;10.800;2023-03-05T01:14:51;1.83;;;0.77;;
20138;SDS011;10230;51.502;10.800;2023-03-05T01:17:16;1.03;;;0.43;;
20138;SDS011;10230;51.502;10.800;2023-03-05T01:19:43;4.27;;;0.40;;
20138;SDS011;10230;51.502;10.800;2023-03-05T01:22:09;1.57;;;0.40;;
20138;SDS011;10230;51.502;10.800;2023-03-05T01:24:35;2.37;;;0.50;;
20138;SDS011;10230;51.502;10.800;2023-03-05T01:27:01;2.00;;;0.60;;
20138;SDS011;10230;51.502;10.800;2023-03-05T01:29:27;1.00;;;0.20;;
20138;SDS011;10230;51.502;10.800;2023-03-05T01:31:53;1.43;;;0.20;;
20138;SDS011;10230;51.502;10.800;2023-03-05T01:34:19;2.30;;;0.40;;
20138;SDS011;10230;51.502;10.800;2023-03-05T01:36:45;0.97;;;0.67;;
20138;SDS011;10230;51.502;10.800;2023-03-05T01:39:14;2.13;;;0.57;;
20138;SDS011;10230;51.502;10.800;2023-03-05T01:41:40;2.70;;;0.67;;
20138;SDS011;10230;51.502;10.800;2023-03-05T01:44:06;1.40;;;0.60;;
20138;SDS011;10230;51.502;10.800;2023-03-05T01:51:40;3.17;;;0.90;;
20138;SDS011;10230;51.502;10.800;2023-03-05T01:54:08;1.00;;;0.60;;
20138;SDS011;10230;51.502;10.800;2023-03-05T01:56:35;1.93;;;0.40;;
20138;SDS011;10230;51.502;10.800;2023-03-05T01:59:02;3.83;;;0.60;;
20138;SDS011;10230;51.502;10.800;2023-03-05T02:01:32;1.50;;;0.63;;
20138;SDS011;10230;51.502;10.800;2023-03-05T02:03:59;2.00;;;0.73;;
20138;SDS011;10230;51.502;10.800;2023-03-05T02:06:25;4.23;;;0.60;;
20138;SDS011;10230;51.502;10.800;2023-03-05T02:08:51;1.30;;;0.70;;
20138;SDS011;10230;51.502;10.800;2023-03-05T02:11:17;2.10;;;0.60;;
20138;SDS011;10230;51.502;10.800;2023-03-05T02:13:43;5.73;;;1.00;;
20138;SDS011;10230;51.502;10.800;2023-03-05T02:16:09;3.20;;;0.77;;
20138;SDS011;10230;51.502;10.800;2023-03-05T02:18:35;5.17;;;0.90;;
20138;SDS011;10230;51.502;10.800;2023-03-05T02:23:29;3.87;;;1.00;;
20138;SDS011;10230;51.502;10.800;2023-03-05T02:25:57;7.87;;;1.10;;
20138;SDS011;10230;51.502;10.800;2023-03-05T02:28:31;1.70;;;0.90;;
20138;SDS011;10230;51.502;10.800;2023-03-05T02:30:58;3.40;;;0.97;;
20138;SDS011;10230;51.502;10.800;2023-03-05T02:33:24;6.40;;;1.03;;
20138;SDS011;10230;51.502;10.800;2023-03-05T02:35:50;5.13;;;0.90;;
20138;SDS011;10230;51.502;10.800;2023-03-05T02:38:18;3.67;;;0.90;;
20138;SDS011;10230;51.502;10.800;2023-03-05T02:40:44;0.70;;;0.60;;
20138;SDS011;10230;51.502;10.800;2023-03-05T02:43:10;2.83;;;0.50;;
20138;SDS011;10230;51.502;10.800;2023-03-05T02:45:37;2.30;;;0.70;;
20138;SDS011;10230;51.502;10.800;2023-03-05T02:48:03;2.73;;;0.70;;
20138;SDS011;10230;51.502;10.800;2023-03-05T02:50:29;2.33;;;0.80;;
20138;SDS011;10230;51.502;10.800;2023-03-05T02:52:56;3.73;;;0.90;;
20138;SDS011;10230;51.502;10.800;2023-03-05T02:55:22;1.63;;;0.63;;
20138;SDS011;10230;51.502;10.800;2023-03-05T02:57:48;1.10;;;0.50;;
20138;SDS011;10230;51.502;10.800;2023-03-05T03:00:15;1.87;;;0.97;;
20138;SDS011;10230;51.502;10.800;2023-03-05T03:02:41;2.60;;;0.60;;
20138;SDS011;10230;51.502;10.800;2023-03-05T03:05:07;1.43;;;0.53;;
20138;SDS011;10230;51.502;10.800;2023-03-05T03:07:33;1.77;;;0.60;;
20138;SDS011;10230;51.502;10.800;2023-03-05T03:10:00;2.07;;;0.97;;
20138;SDS011;10230;51.502;10.800;2023-03-05T03:12:26;0.63;;;0.23;;
20138;SDS011;10230;51.502;10.800;2023-03-05T03:14:52;2.57;;;1.10;;
20138;SDS011;10230;51.502;10.800;2023-03-05T03:17:18;2.53;;;0.50;;
20138;SDS011;10230;51.502;10.800;2023-03-05T03:19:44;3.40;;;0.97;;
20138;SDS011;10230;51.502;10.800;2023-03-05T03:22:11;2.87;;;0.70;;
20138;SDS011;10230;51.502;10.800;2023-03-05T03:24:38;3.97;;;0.57;;
20138;SDS011;10230;51.502;10.800;2023-03-05T03:27:04;2.40;;;0.60;;
20138;SDS011;10230;51.502;10.800;2023-03-05T03:29:30;0.73;;;0.50;;
20138;SDS011;10230;51.502;10.800;2023-03-05T03:31:57;2.80;;;0.87;;
20138;SDS011;10230;51.502;10.800;2023-03-05T03:34:23;4.50;;;1.37;;
20138;SDS011;10230;51.502;10.800;2023-03-05T03:36:49;4.47;;;0.80;;
20138;SDS011;10230;51.502;10.800;2023-03-05T03:39:17;2.50;;;0.80;;
20138;SDS011;10230;51.502;10.800;2023-03-05T03:41:43;2.20;;;0.73;;
20138;SDS011;10230;51.502;10.800;2023-03-05T03:44:10;2.70;;;1.20;;
20138;SDS011;10230;51.502;10.800;2023-03-05T03:46:37;8.40;;;0.97;;
20138;SDS011;10230;51.502;10.800;2023-03-05T03:49:03;3.07;;;0.67;;
20138;SDS011;10230;51.502;10.800;2023-03-05T03:51:29;1.87;;;0.80;;
20138;SDS011;10230;51.502;10.800;2023-03-05T03:53:55;1.73;;;0.63;;
20138;SDS011;10230;51.502;10.800;2023-03-05T03:56:21;2.83;;;0.87;;
20138;SDS011;10230;51.502;10.800;2023-03-05T03:58:51;2.23;;;0.60;;
20138;SDS011;10230;51.502;10.800;2023-03-05T04:01:18;1.63;;;0.60;;
20138;SDS011;10230;51.502;10.800;2023-03-05T04:03:44;11.43;;;2.47;;
20138;SDS011;10230;51.502;10.800;2023-03-05T04:06:10;1.87;;;0.80;;
20138;SDS011;10230;51.502;10.800;2023-03-05T04:08:36;2.60;;;0.70;;
20138;SDS011;10230;51.502;10.800;2023-03-05T04:11:02;1.73;;;0.40;;
20138;SDS011;10230;51.502;10.800;2023-03-05T04:13:29;5.33;;;1.90;;
20138;SDS011;10230;51.502;10.800;2023-03-05T04:15:55;1.60;;;0.90;;
20138;SDS011;10230;51.502;10.800;2023-03-05T04:18:21;2.43;;;0.80;;
20138;SDS011;10230;51.502;10.800;2023-03-05T04:20:47;4.93;;;0.87;;
20138;SDS011;10230;51.502;10.800;2023-03-05T04:23:13;1.87;;;0.60;;
20138;SDS011;10230;51.502;10.800;2023-03-05T04:25:39;4.37;;;1.37;;
20138;SDS011;10230;51.502;10.800;2023-03-05T04:28:05;0.97;;;0.50;;
20138;SDS011;10230;51.502;10.800;2023-03-05T04:30:31;2.47;;;0.70;;
20138;SDS011;10230;51.502;10.800;2023-03-05T04:32:57;3.63;;;0.70;;
20138;SDS011;10230;51.502;10.800;2023-03-05T04:35:23;2.03;;;0.87;;
20138;SDS011;10230;51.502;10.800;2023-03-05T04:37:49;1.93;;;0.40;;
20138;SDS011;10230;51.502;10.800;2023-03-05T04:40:15;1.90;;;0.70;;
20138;SDS011;10230;51.502;10.800;2023-03-05T04:42:42;2.53;;;1.57;;
20138;SDS011;10230;51.502;10.800;2023-03-05T04:45:08;1.63;;;0.53;;
20138;SDS011;10230;51.502;10.800;2023-03-05T04:47:34;4.43;;;0.70;;
20138;SDS011;10230;51.502;10.800;2023-03-05T04:50:01;2.13;;;0.60;;
20138;SDS011;10230;51.502;10.800;2023-03-05T04:52:27;2.63;;;0.57;;
20138;SDS011;10230;51.502;10.800;2023-03-05T04:54:53;2.93;;;0.90;;
20138;SDS011;10230;51.502;10.800;2023-03-05T04:57:19;1.43;;;0.63;;
20138;SDS011;10230;51.502;10.800;2023-03-05T04:59:45;1.97;;;0.70;;
20138;SDS011;10230;51.502;10.800;2023-03-05T05:02:11;2.27;;;0.57;;
20138;SDS011;10230;51.502;10.800;2023-03-05T05:04:37;4.83;;;0.83;;
20138;SDS011;10230;51.502;10.800;2023-03-05T05:07:04;4.83;;;1.00;;
20138;SDS011;10230;51.502;10.800;2023-03-05T05:09:31;1.93;;;0.73;;
20138;SDS011;10230;51.502;10.800;2023-03-05T05:11:57;4.43;;;2.23;;
20138;SDS011;10230;51.502;10.800;2023-03-05T05:14:23;2.30;;;0.73;;
20138;SDS011;10230;51.502;10.800;2023-03-05T05:16:49;1.13;;;0.80;;
20138;SDS011;10230;51.502;10.800;2023-03-05T05:19:15;1.80;;;0.80;;
20138;SDS011;10230;51.502;10.800;2023-03-05T05:21:41;2.20;;;0.90;;
20138;SDS011;10230;51.502;10.800;2023-03-05T05:24:07;2.80;;;0.80;;
20138;SDS011;10230;51.502;10.800;2023-03-05T05:26:33;2.67;;;0.90;;
20138;SDS011;10230;51.502;10.800;2023-03-05T05:28:58;4.90;;;2.00;;
20138;SDS011;10230;51.502;10.800;2023-03-05T05:31:24;5.73;;;1.50;;
20138;SDS011;10230;51.502;10.800;2023-03-05T05:33:49;3.90;;;1.23;;
20138;SDS011;10230;51.502;10.800;2023-03-05T05:36:15;7.17;;;1.27;;
20138;SDS011;10230;51.502;10.800;2023-03-05T05:38:43;2.10;;;0.90;;
20138;SDS011;10230;51.502;10.800;2023-03-05T05:41:10;3.23;;;1.00;;
20138;SDS011;10230;51.502;10.800;2023-03-05T05:43:37;2.87;;;0.93;;
20138;SDS011;10230;51.502;10.800;2023-03-05T05:46:07;5.03;;;1.60;;
20138;SDS011;10230;51.502;10.800;2023-03-05T05:48:38;4.33;;;1.73;;
20138;SDS011;10230;51.502;10.800;2023-03-05T05:51:04;2.57;;;1.23;;
20138;SDS011;10230;51.502;10.800;2023-03-05T05:53:31;4.97;;;1.30;;
20138;SDS011;10230;51.502;10.800;2023-03-05T05:55:57;4.30;;;1.67;;
20138;SDS011;10230;51.502;10.800;2023-03-05T05:58:22;6.93;;;1.43;;
20138;SDS011;10230;51.502;10.800;2023-03-05T06:00:48;1.67;;;0.90;;
20138;SDS011;10230;51.502;10.800;2023-03-05T06:03:14;2.23;;;1.40;;
20138;SDS011;10230;51.502;10.800;2023-03-05T06:05:42;4.00;;;1.30;;
20138;SDS011;10230;51.502;10.800;2023-03-05T06:08:08;3.60;;;1.53;;
20138;SDS011;10230;51.502;10.800;2023-03-05T06:10:34;2.43;;;1.10;;
20138;SDS011;10230;51.502;10.800;2023-03-05T06:13:00;4.70;;;2.23;;
20138;SDS011;10230;51.502;10.800;2023-03-05T06:15:25;2.23;;;1.17;;
20138;SDS011;10230;51.502;10.800;2023-03-05T06:17:51;3.30;;;1.20;;
20138;SDS011;10230;51.502;10.800;2023-03-05T06:20:18;7.97;;;1.30;;
20138;SDS011;10230;51.502;10.800;2023-03-05T06:22:45;3.20;;;1.67;;
20138;SDS011;10230;51.502;10.800;2023-03-05T06:25:11;3.93;;;1.53;;
20138;SDS011;10230;51.502;10.800;2023-03-05T06:27:37;3.80;;;1.30;;
20138;SDS011;10230;51.502;10.800;2023-03-05T06:30:04;3.00;;;1.40;;
20138;SDS011;10230;51.502;10.800;2023-03-05T06:32:30;5.30;;;1.20;;
20138;SDS011;10230;51.502;10.800;2023-03-05T06:34:56;6.60;;;1.10;;
20138;SDS011;10230;51.502;10.800;2023-03-05T06:37:22;4.87;;;1.43;;
20138;SDS011;10230;51.502;10.800;2023-03-05T06:39:48;3.77;;;1.80;;
20138;SDS011;10230;51.502;10.800;2023-03-05T06:42:14;3.80;;;1.40;;
20138;SDS011;10230;51.502;10.800;2023-03-05T06:44:41;2.10;;;0.93;;
20138;SDS011;10230;51.502;10.800;2023-03-05T06:47:07;3.53;;;1.43;;
20138;SDS011;10230;51.502;10.800;2023-03-05T06:49:37;3.80;;;1.83;;
20138;SDS011;10230;51.502;10.800;2023-03-05T06:52:03;5.37;;;1.50;;
20138;SDS011;10230;51.502;10.800;2023-03-05T06:54:29;5.37;;;1.60;;
20138;SDS011;10230;51.502;10.800;2023-03-05T06:56:55;4.27;;;1.50;;
20138;SDS011;10230;51.502;10.800;2023-03-05T06:59:21;2.13;;;1.40;;
20138;SDS011;10230;51.502;10.800;2023-03-05T07:01:47;3.17;;;1.20;;
20138;SDS011;10230;51.502;10.800;2023-03-05T07:04:13;1.50;;;1.00;;
20138;SDS011;10230;51.502;10.800;2023-03-05T07:06:40;4.57;;;1.33;;
20138;SDS011;10230;51.502;10.800;2023-03-05T07:09:07;3.30;;;1.33;;
20138;SDS011;10230;51.502;10.800;2023-03-05T07:11:35;8.90;;;1.57;;
20138;SDS011;10230;51.502;10.800;2023-03-05T07:14:00;4.67;;;1.80;;
20138;SDS011;10230;51.502;10.800;2023-03-05T07:16:28;3.50;;;1.83;;
20138;SDS011;10230;51.502;10.800;2023-03-05T07:18:55;1.63;;;1.23;;
20138;SDS011;10230;51.502;10.800;2023-03-05T07:21:23;11.13;;;2.03;;
20138;SDS011;10230;51.502;10.800;2023-03-05T07:23:51;3.33;;;1.80;;
20138;SDS011;10230;51.502;10.800;2023-03-05T07:26:18;2.87;;;1.60;;
20138;SDS011;10230;51.502;10.800;2023-03-05T07:28:44;2.63;;;1.40;;
20138;SDS011;10230;51.502;10.800;2023-03-05T07:31:12;3.73;;;1.87;;
20138;SDS011;10230;51.502;10.800;2023-03-05T07:33:39;1.70;;;1.27;;
20138;SDS011;10230;51.502;10.800;2023-03-05T07:36:08;8.10;;;2.07;;
20138;SDS011;10230;51.502;10.800;2023-03-05T07:38:34;4.00;;;1.87;;
20138;SDS011;10230;51.502;10.800;2023-03-05T07:41:03;3.37;;;1.70;;
20138;SDS011;10230;51.502;10.800;2023-03-05T07:43:33;7.60;;;1.67;;
20138;SDS011;10230;51.502;10.800;2023-03-05T07:46:02;2.57;;;1.50;;
20138;SDS011;10230;51.502;10.800;2023-03-05T07:48:29;3.80;;;1.47;;
20138;SDS011;10230;51.502;10.800;2023-03-05T07:51:01;2.60;;;1.20;;
20138;SDS011;10230;51.502;10.800;2023-03-05T07:53:28;3.60;;;1.70;;
20138;SDS011;10230;51.502;10.800;2023-03-05T07:55:54;3.37;;;1.40;;
20138;SDS011;10230;51.502;10.800;2023-03-05T07:58:22;5.80;;;1.77;;
20138;SDS011;10230;51.502;10.800;2023-03-05T08:00:49;2.60;;;1.60;;
20138;SDS011;10230;51.502;10.800;2023-03-05T08:03:15;2.27;;;1.40;;
20138;SDS011;10230;51.502;10.800;2023-03-05T08:05:41;2.93;;;1.83;;
20138;SDS011;10230;51.502;10.800;2023-03-05T08:08:07;4.37;;;2.03;;
20138;SDS011;10230;51.502;10.800;2023-03-05T08:10:34;5.97;;;2.63;;
20138;SDS011;10230;51.502;10.800;2023-03-05T08:13:00;4.23;;;1.77;;
20138;SDS011;10230;51.502;10.800;2023-03-05T08:15:26;2.57;;;1.57;;
20138;SDS011;10230;51.502;10.800;2023-03-05T08:17:52;2.60;;;1.30;;
20138;SDS011;10230;51.502;10.800;2023-03-05T08:20:18;3.07;;;1.60;;
20138;SDS011;10230;51.502;10.800;2023-03-05T08:22:45;3.57;;;1.47;;
20138;SDS011;10230;51.502;10.800;2023-03-05T08:25:11;3.77;;;1.63;;
20138;SDS011;10230;51.502;10.800;2023-03-05T08:27:38;2.43;;;1.47;;
20138;SDS011;10230;51.502;10.800;2023-03-05T08:30:05;3.00;;;1.30;;
20138;SDS011;10230;51.502;10.800;2023-03-05T08:32:31;2.47;;;1.20;;
20138;SDS011;10230;51.502;10.800;2023-03-05T08:34:57;4.23;;;1.57;;
20138;SDS011;10230;51.502;10.800;2023-03-05T08:37:23;2.57;;;1.57;;
20138;SDS011;10230;51.502;10.800;2023-03-05T08:39:49;3.53;;;1.93;;
20138;SDS011;10230;51.502;10.800;2023-03-05T08:42:15;5.57;;;1.80;;
20138;SDS011;10230;51.502;10.800;2023-03-05T08:44:41;5.07;;;1.80;;
20138;SDS011;10230;51.502;10.800;2023-03-05T08:47:07;3.87;;;1.33;;
20138;SDS011;10230;51.502;10.800;2023-03-05T08:49:33;2.87;;;1.30;;
20138;SDS011;10230;51.502;10.800;2023-03-05T08:51:59;2.63;;;1.37;;
20138;SDS011;10230;51.502;10.800;2023-03-05T08:54:25;3.13;;;1.47;;
20138;SDS011;10230;51.502;10.800;2023-03-05T08:56:51;2.70;;;1.30;;
20138;SDS011;10230;51.502;10.800;2023-03-05T08:59:17;4.13;;;1.83;;
20138;SDS011;10230;51.502;10.800;2023-03-05T09:01:43;5.53;;;3.20;;
20138;SDS011;10230;51.502;10.800;2023-03-05T09:04:09;6.23;;;2.37;;
20138;SDS011;10230;51.502;10.800;2023-03-05T09:06:35;4.67;;;1.87;;
20138;SDS011;10230;51.502;10.800;2023-03-05T09:09:05;2.87;;;1.37;;
20138;SDS011;10230;51.502;10.800;2023-03-05T09:11:31;3.87;;;1.50;;
20138;SDS011;10230;51.502;10.800;2023-03-05T09:14:00;3.50;;;1.33;;
20138;SDS011;10230;51.502;10.800;2023-03-05T09:16:26;2.20;;;1.17;;
20138;SDS011;10230;51.502;10.800;2023-03-05T09:18:52;3.87;;;1.30;;
20138;SDS011;10230;51.502;10.800;2023-03-05T09:21:18;4.40;;;1.10;;
20138;SDS011;10230;51.502;10.800;2023-03-05T09:23:44;4.30;;;2.30;;
20138;SDS011;10230;51.502;10.800;2023-03-05T09:26:11;2.07;;;1.37;;
20138;SDS011;10230;51.502;10.800;2023-03-05T09:28:38;2.73;;;1.20;;
20138;SDS011;10230;51.502;10.800;2023-03-05T09:31:05;2.50;;;1.00;;
20138;SDS011;10230;51.502;10.800;2023-03-05T09:33:32;2.37;;;0.97;;
20138;SDS011;10230;51.502;10.800;2023-03-05T09:35:59;1.33;;;1.00;;
20138;SDS011;10230;51.502;10.800;2023-03-05T09:38:25;2.40;;;1.17;;
20138;SDS011;10230;51.502;10.800;2023-03-05T09:40:57;1.83;;;0.93;;
20138;SDS011;10230;51.502;10.800;2023-03-05T09:43:31;2.10;;;1.23;;
20138;SDS011;10230;51.502;10.800;2023-03-05T09:48:35;2.97;;;1.10;;
20138;SDS011;10230;51.502;10.800;2023-03-05T09:51:06;1.70;;;1.00;;
20138;SDS011;10230;51.502;10.800;2023-03-05T09:56:21;2.67;;;1.50;;
20138;SDS011;10230;51.502;10.800;2023-03-05T09:58:48;2.63;;;0.97;;
20138;SDS011;10230;51.502;10.800;2023-03-05T10:08:56;0.70;;;0.60;;
20138;SDS011;10230;51.502;10.800;2023-03-05T10:11:37;1.77;;;0.77;;
20138;SDS011;10230;51.502;10.800;2023-03-05T10:14:05;2.00;;;0.97;;
20138;SDS011;10230;51.502;10.800;2023-03-05T10:21:27;1.97;;;0.97;;
20138;SDS011;10230;51.502;10.800;2023-03-05T10:26:26;1.70;;;0.80;;
20138;SDS011;10230;51.502;10.800;2023-03-05T10:29:10;0.60;;;0.50;;
20138;SDS011;10230;51.502;10.800;2023-03-05T10:31:45;2.03;;;0.60;;
20138;SDS011;10230;51.502;10.800;2023-03-05T10:39:45;0.88;;;0.52;;
20138;SDS011;10230;51.502;10.800;2023-03-05T10:45:16;1.17;;;0.40;;
20138;SDS011;10230;51.502;10.800;2023-03-05T10:47:27;0.75;;;0.63;;
20138;SDS011;10230;51.502;10.800;2023-03-05T10:49:55;1.00;;;0.80;;
20138;SDS011;10230;51.502;10.800;2023-03-05T10:52:34;0.47;;;0.32;;
20138;SDS011;10230;51.502;10.800;2023-03-05T10:55:04;0.80;;;0.50;;
20138;SDS011;10230;51.502;10.800;2023-03-05T10:57:36;0.53;;;0.50;;
20138;SDS011;10230;51.502;10.800;2023-03-05T11:00:07;1.37;;;0.50;;
20138;SDS011;10230;51.502;10.800;2023-03-05T11:03:00;1.77;;;1.00;;
20138;SDS011;10230;51.502;10.800;2023-03-05T11:05:43;0.67;;;0.40;;
20138;SDS011;10230;51.502;10.800;2023-03-05T11:11:14;0.50;;;0.30;;
20138;SDS011;10230;51.502;10.800;2023-03-05T11:14:00;0.73;;;0.60;;
20138;SDS011;10230;51.502;10.800;2023-03-05T11:16:28;0.97;;;0.70;;
20138;SDS011;10230;51.502;10.800;2023-03-05T11:21:40;2.67;;;1.10;;
20138;SDS011;10230;51.502;10.800;2023-03-05T11:24:18;1.23;;;0.90;;
20138;SDS011;10230;51.502;10.800;2023-03-05T11:26:52;1.47;;;0.80;;
20138;SDS011;10230;51.502;10.800;2023-03-05T11:29:20;1.20;;;0.50;;
20138;SDS011;10230;51.502;10.800;2023-03-05T11:31:46;1.03;;;0.60;;
20138;SDS011;10230;51.502;10.800;2023-03-05T11:36:42;1.23;;;0.55;;
20138;SDS011;10230;51.502;10.800;2023-03-05T11:39:10;2.72;;;0.90;;
20138;SDS011;10230;51.502;10.800;2023-03-05T11:41:44;0.60;;;0.50;;
20138;SDS011;10230;51.502;10.800;2023-03-05T11:44:13;0.60;;;0.50;;
20138;SDS011;10230;51.502;10.800;2023-03-05T11:46:45;1.35;;;0.60;;
20138;SDS011;10230;51.502;10.800;2023-03-05T11:49:13;2.05;;;0.75;;
20138;SDS011;10230;51.502;10.800;2023-03-05T11:51:42;0.82;;;0.63;;
20138;SDS011;10230;51.502;10.800;2023-03-05T11:54:15;1.58;;;0.80;;
20138;SDS011;10230;51.502;10.800;2023-03-05T11:56:42;1.90;;;0.73;;
20138;SDS011;10230;51.502;10.800;2023-03-05T11:59:22;0.77;;;0.60;;
20138;SDS011;10230;51.502;10.800;2023-03-05T12:01:53;1.47;;;0.70;;
20138;SDS011;10230;51.502;10.800;2023-03-05T12:04:20;0.73;;;0.37;;
20138;SDS011;10230;51.502;10.800;2023-03-05T12:06:51;1.27;;;0.60;;
20138;SDS011;10230;51.502;10.800;2023-03-05T12:09:40;1.47;;;0.73;;
20138;SDS011;10230;51.502;10.800;2023-03-05T12:14:33;1.13;;;0.50;;
20138;SDS011;10230;51.502;10.800;2023-03-05T12:17:09;1.60;;;0.63;;
20138;SDS011;10230;51.502;10.800;2023-03-05T12:19:46;0.97;;;0.40;;
20138;SDS011;10230;51.502;10.800;2023-03-05T12:22:18;0.67;;;0.50;;
20138;SDS011;10230;51.502;10.800;2023-03-05T12:24:44;0.77;;;0.50;;
20138;SDS011;10230;51.502;10.800;2023-03-05T12:27:11;1.80;;;0.60;;
20138;SDS011;10230;51.502;10.800;2023-03-05T12:29:51;0.80;;;0.33;;
20138;SDS011;10230;51.502;10.800;2023-03-05T12:45:28;1.40;;;0.67;;
20138;SDS011;10230;51.502;10.800;2023-03-05T12:47:47;0.47;;;0.27;;
20138;SDS011;10230;51.502;10.800;2023-03-05T12:53:19;2.13;;;0.60;;
20138;SDS011;10230;51.502;10.800;2023-03-05T13:03:30;2.63;;;0.80;;
20138;SDS011;10230;51.502;10.800;2023-03-05T13:05:58;2.00;;;0.40;;
20138;SDS011;10230;51.502;10.800;2023-03-05T13:08:28;0.67;;;0.33;;
20138;SDS011;10230;51.502;10.800;2023-03-05T13:13:28;0.67;;;0.47;;
20138;SDS011;10230;51.502;10.800;2023-03-05T13:15:55;3.90;;;1.90;;
20138;SDS011;10230;51.502;10.800;2023-03-05T13:18:22;1.77;;;0.70;;
20138;SDS011;10230;51.502;10.800;2023-03-05T13:21:05;0.70;;;0.50;;
20138;SDS011;10230;51.502;10.800;2023-03-05T13:23:33;0.67;;;0.30;;
20138;SDS011;10230;51.502;10.800;2023-03-05T13:26:12;1.37;;;0.87;;
20138;SDS011;10230;51.502;10.800;2023-03-05T13:28:39;2.30;;;0.60;;
20138;SDS011;10230;51.502;10.800;2023-03-05T13:31:11;0.70;;;0.40;;
20138;SDS011;10230;51.502;10.800;2023-03-05T13:33:37;1.43;;;0.63;;
20138;SDS011;10230;51.502;10.800;2023-03-05T13:36:04;3.77;;;0.73;;
20138;SDS011;10230;51.502;10.800;2023-03-05T13:38:42;3.47;;;1.30;;
20138;SDS011;10230;51.502;10.800;2023-03-05T13:43:54;2.03;;;0.90;;
20138;SDS011;10230;51.502;10.800;2023-03-05T13:46:21;3.20;;;1.47;;
20138;SDS011;10230;51.502;10.800;2023-03-05T13:48:47;2.67;;;0.90;;
20138;SDS011;10230;51.502;10.800;2023-03-05T13:51:13;3.03;;;1.00;;
20138;SDS011;10230;51.502;10.800;2023-03-05T13:53:39;2.83;;;0.93;;
20138;SDS011;10230;51.502;10.800;2023-03-05T13:56:06;1.43;;;0.60;;
20138;SDS011;10230;51.502;10.800;2023-03-05T13:58:39;1.23;;;0.70;;
20138;SDS011;10230;51.502;10.800;2023-03-05T14:01:12;0.97;;;0.60;;
20138;SDS011;10230;51.502;10.800;2023-03-05T14:03:38;0.90;;;0.40;;
20138;SDS011;10230;51.502;10.800;2023-03-05T14:06:07;1.83;;;0.50;;
20138;SDS011;10230;51.502;10.800;2023-03-05T14:08:34;1.70;;;0.40;;
20138;SDS011;10230;51.502;10.800;2023-03-05T14:11:10;1.23;;;0.50;;
20138;SDS011;10230;51.502;10.800;2023-03-05T14:13:36;1.20;;;0.37;;
20138;SDS011;10230;51.502;10.800;2023-03-05T14:18:29;2.10;;;0.53;;
20138;SDS011;10230;51.502;10.800;2023-03-05T14:28:42;1.80;;;0.60;;
20138;SDS011;10230;51.502;10.800;2023-03-05T14:31:12;1.13;;;0.73;;
20138;SDS011;10230;51.502;10.800;2023-03-05T14:33:40;1.33;;;0.63;;
20138;SDS011;10230;51.502;10.800;2023-03-05T14:36:06;1.40;;;0.43;;
20138;SDS011;10230;51.502;10.800;2023-03-05T14:38:33;1.60;;;0.63;;
20138;SDS011;10230;51.502;10.800;2023-03-05T14:41:37;1.13;;;0.87;;
20138;SDS011;10230;51.502;10.800;2023-03-05T14:43:55;1.23;;;0.80;;
20138;SDS011;10230;51.502;10.800;2023-03-05T14:46:21;2.63;;;0.70;;
20138;SDS011;10230;51.502;10.800;2023-03-05T14:48:48;0.90;;;0.70;;
20138;SDS011;10230;51.502;10.800;2023-03-05T14:51:14;0.67;;;0.50;;
20138;SDS011;10230;51.502;10.800;2023-03-05T14:53:43;1.73;;;1.13;;
20138;SDS011;10230;51.502;10.800;2023-03-05T14:56:15;1.20;;;0.80;;
20138;SDS011;10230;51.502;10.800;2023-03-05T14:58:42;0.80;;;0.63;;
20138;SDS011;10230;51.502;10.800;2023-03-05T15:01:09;3.20;;;1.03;;
20138;SDS011;10230;51.502;10.800;2023-03-05T15:03:36;7.23;;;2.40;;
20138;SDS011;10230;51.502;10.800;2023-03-05T15:06:04;1.97;;;1.20;;
20138;SDS011;10230;51.502;10.800;2023-03-05T15:08:31;1.53;;;0.70;;
20138;SDS011;10230;51.502;10.800;2023-03-05T15:10:57;0.50;;;0.50;;
20138;SDS011;10230;51.502;10.800;2023-03-05T15:13:24;0.73;;;0.43;;
20138;SDS011;10230;51.502;10.800;2023-03-05T15:15:50;1.33;;;0.60;;
20138;SDS011;10230;51.502;10.800;2023-03-05T15:18:18;0.70;;;0.40;;
20138;SDS011;10230;51.502;10.800;2023-03-05T15:20:44;1.33;;;0.63;;
20138;SDS011;10230;51.502;10.800;2023-03-05T15:23:12;1.83;;;0.40;;
20138;SDS011;10230;51.502;10.800;2023-03-05T15:25:39;2.17;;;0.47;;
20138;SDS011;10230;51.502;10.800;2023-03-05T15:28:05;2.63;;;0.60;;
20138;SDS011;10230;51.502;10.800;2023-03-05T15:30:32;3.40;;;1.20;;
20138;SDS011;10230;51.502;10.800;2023-03-05T15:33:01;1.30;;;0.57;;
20138;SDS011;10230;51.502;10.800;2023-03-05T15:35:28;0.93;;;0.53;;
20138;SDS011;10230;51.502;10.800;2023-03-05T15:37:54;1.00;;;0.70;;
20138;SDS011;10230;51.502;10.800;2023-03-05T15:40:20;1.23;;;0.90;;
20138;SDS011;10230;51.502;10.800;2023-03-05T15:42:46;1.23;;;0.80;;
20138;SDS011;10230;51.502;10.800;2023-03-05T15:45:12;3.73;;;1.00;;
20138;SDS011;10230;51.502;10.800;2023-03-05T15:47:38;1.13;;;0.80;;
20138;SDS011;10230;51.502;10.800;2023-03-05T15:50:04;1.80;;;0.50;;
20138;SDS011;10230;51.502;10.800;2023-03-05T15:52:30;1.70;;;0.70;;
20138;SDS011;10230;51.502;10.800;2023-03-05T15:54:56;1.70;;;0.93;;
20138;SDS011;10230;51.502;10.800;2023-03-05T15:57:21;2.10;;;0.67;;
20138;SDS011;10230;51.502;10.800;2023-03-05T15:59:47;1.07;;;0.70;;
20138;SDS011;10230;51.502;10.800;2023-03-05T16:02:13;1.23;;;0.60;;